sensor_id;sensor_type;location;lat;lon;timestamp;pressure;altitude;pressure_sealevel;temperature;humidity
36798;BME280;22748;8.426;99.512;2023-02-22T00:02:22;100936.31;;;28.49;64.96
36798;BME280;22748;8.426;99.512;2023-02-22T00:04:56;100937.38;;;28.48;64.74
36798;BME280;22748;8.426;99.512;2023-02-22T00:07:26;100932.53;;;28.44;64.73
36798;BME280;22748;8.426;99.512;2023-02-22T00:10:03;100942.88;;;28.40;65.17
36798;BME280;22748;8.426;99.512;2023-02-22T00:12:41;100944.91;;;28.38;64.74
36798;BME280;22748;8.426;99.512;2023-02-22T00:15:14;100942.41;;;28.37;65.00
36798;BME280;22748;8.426;99.512;2023-02-22T00:17:46;100947.97;;;28.35;65.46
36798;BME280;22748;8.426;99.512;2023-02-22T00:20:18;100948.84;;;28.36;65.46
36798;BME280;22748;8.426;99.512;2023-02-22T00:22:49;100950.66;;;28.35;65.47
36798;BME280;22748;8.426;99.512;2023-02-22T00:25:27;100956.44;;;28.32;65.50
36798;BME280;22748;8.426;99.512;2023-02-22T00:27:57;100958.50;;;28.30;65.37
36798;BME280;22748;8.426;99.512;2023-02-22T00:30:30;100958.28;;;28.25;65.83
36798;BME280;22748;8.426;99.512;2023-02-22T00:33:02;100962.59;;;28.26;65.61
36798;BME280;22748;8.426;99.512;2023-02-22T00:35:35;100971.69;;;28.25;66.01
36798;BME280;22748;8.426;99.512;2023-02-22T00:38:07;100964.28;;;28.27;66.35
36798;BME280;22748;8.426;99.512;2023-02-22T00:40:39;100962.22;;;28.29;65.92
36798;BME280;22748;8.426;99.512;2023-02-22T00:43:10;100974.63;;;28.30;66.48
36798;BME280;22748;8.426;99.512;2023-02-22T00:45:42;100979.78;;;28.31;66.40
36798;BME280;22748;8.426;99.512;2023-02-22T00:48:13;100974.25;;;28.33;66.47
36798;BME280;22748;8.426;99.512;2023-02-22T00:50:49;100976.28;;;28.31;66.42
36798;BME280;22748;8.426;99.512;2023-02-22T00:53:24;100987.22;;;28.29;66.37
36798;BME280;22748;8.426;99.512;2023-02-22T00:55:56;100989.91;;;28.29;66.05
36798;BME280;22748;8.426;99.512;2023-02-22T00:58:27;100980.16;;;28.28;65.77
36798;BME280;22748;8.426;99.512;2023-02-22T01:00:59;100994.00;;;28.25;65.94
36798;BME280;22748;8.426;99.512;2023-02-22T01:03:32;100991.13;;;28.27;65.83
36798;BME280;22748;8.426;99.512;2023-02-22T01:06:09;100986.78;;;28.26;65.99
36798;BME280;22748;8.426;99.512;2023-02-22T01:08:43;100985.75;;;28.27;65.88
36798;BME280;22748;8.426;99.512;2023-02-22T01:11:20;100983.91;;;28.27;65.49
36798;BME280;22748;8.426;99.512;2023-02-22T01:13:49;100979.97;;;28.30;65.61
36798;BME280;22748;8.426;99.512;2023-02-22T01:16:22;101002.09;;;28.32;65.76
36798;BME280;22748;8.426;99.512;2023-02-22T01:18:53;101004.00;;;28.38;65.70
36798;BME280;22748;8.426;99.512;2023-02-22T01:21:23;100990.63;;;28.45;65.81
36798;BME280;22748;8.426;99.512;2023-02-22T01:23:55;100995.81;;;28.46;65.53
36798;BME280;22748;8.426;99.512;2023-02-22T01:26:26;100989.59;;;28.46;65.41
36798;BME280;22748;8.426;99.512;2023-02-22T01:28:57;100992.06;;;28.47;65.53
36798;BME280;22748;8.426;99.512;2023-02-22T01:31:28;100995.44;;;28.49;65.24
36798;BME280;22748;8.426;99.512;2023-02-22T01:33:59;100994.19;;;28.52;65.77
36798;BME280;22748;8.426;99.512;2023-02-22T01:36:31;101000.03;;;28.56;65.18
36798;BME280;22748;8.426;99.512;2023-02-22T01:39:03;101008.72;;;28.58;65.57
36798;BME280;22748;8.426;99.512;2023-02-22T01:41:35;101005.63;;;28.61;65.78
36798;BME280;22748;8.426;99.512;2023-02-22T01:44:24;101007.94;;;28.64;65.54
36798;BME280;22748;8.426;99.512;2023-02-22T01:46:58;101011.66;;;28.69;65.65
36798;BME280;22748;8.426;99.512;2023-02-22T01:49:37;101007.56;;;28.74;65.99
36798;BME280;22748;8.426;99.512;2023-02-22T01:52:15;101008.38;;;28.74;66.14
36798;BME280;22748;8.426;99.512;2023-02-22T01:54:50;101005.31;;;28.77;65.59
36798;BME280;22748;8.426;99.512;2023-02-22T01:57:28;101010.28;;;28.80;65.48
36798;BME280;22748;8.426;99.512;2023-02-22T02:00:04;101008.41;;;28.81;65.62
36798;BME280;22748;8.426;99.512;2023-02-22T02:02:42;101011.53;;;28.84;65.54
36798;BME280;22748;8.426;99.512;2023-02-22T02:05:15;101013.44;;;28.90;65.59
36798;BME280;22748;8.426;99.512;2023-02-22T02:07:45;101009.31;;;28.95;65.67
36798;BME280;22748;8.426;99.512;2023-02-22T02:10:15;101022.97;;;29.00;65.41
36798;BME280;22748;8.426;99.512;2023-02-22T02:12:49;101015.72;;;29.00;65.17
36798;BME280;22748;8.426;99.512;2023-02-22T02:15:22;101006.47;;;29.03;64.82
36798;BME280;22748;8.426;99.512;2023-02-22T02:17:55;101014.09;;;29.06;64.52
36798;BME280;22748;8.426;99.512;2023-02-22T02:20:31;101017.44;;;29.08;64.32
36798;BME280;22748;8.426;99.512;2023-02-22T02:23:16;101027.81;;;29.11;64.27
36798;BME280;22748;8.426;99.512;2023-02-22T02:29:29;101017.03;;;29.11;64.14
36798;BME280;22748;8.426;99.512;2023-02-22T02:32:30;101025.13;;;29.11;63.56
36798;BME280;22748;8.426;99.512;2023-02-22T02:35:05;101019.34;;;29.14;63.60
36798;BME280;22748;8.426;99.512;2023-02-22T02:37:46;101021.81;;;29.16;64.01
36798;BME280;22748;8.426;99.512;2023-02-22T02:40:22;101034.69;;;29.20;63.45
36798;BME280;22748;8.426;99.512;2023-02-22T02:42:57;101032.22;;;29.25;63.17
36798;BME280;22748;8.426;99.512;2023-02-22T02:45:34;101038.63;;;29.31;63.43
36798;BME280;22748;8.426;99.512;2023-02-22T02:48:11;101035.34;;;29.36;63.29
36798;BME280;22748;8.426;99.512;2023-02-22T02:50:47;101034.75;;;29.40;63.11
36798;BME280;22748;8.426;99.512;2023-02-22T02:53:19;101027.31;;;29.42;62.84
36798;BME280;22748;8.426;99.512;2023-02-22T02:55:49;101033.50;;;29.43;62.74
36798;BME280;22748;8.426;99.512;2023-02-22T02:58:22;101033.50;;;29.43;62.81
36798;BME280;22748;8.426;99.512;2023-02-22T03:00:55;101036.81;;;29.45;62.51
36798;BME280;22748;8.426;99.512;2023-02-22T03:03:46;101036.00;;;29.51;62.85
36798;BME280;22748;8.426;99.512;2023-02-22T03:06:51;101032.47;;;29.50;62.70
36798;BME280;22748;8.426;99.512;2023-02-22T03:09:37;101021.94;;;29.56;62.64
36798;BME280;22748;8.426;99.512;2023-02-22T03:12:20;101037.66;;;29.52;62.75
36798;BME280;22748;8.426;99.512;2023-02-22T03:15:02;101037.88;;;29.57;62.58
36798;BME280;22748;8.426;99.512;2023-02-22T03:17:44;101028.16;;;29.63;62.36
36798;BME280;22748;8.426;99.512;2023-02-22T03:20:23;101026.53;;;29.68;61.77
36798;BME280;22748;8.426;99.512;2023-02-22T03:23:05;101019.47;;;29.67;61.81
36798;BME280;22748;8.426;99.512;2023-02-22T03:25:45;101024.25;;;29.72;61.96
36798;BME280;22748;8.426;99.512;2023-02-22T03:28:20;101018.88;;;29.79;61.58
36798;BME280;22748;8.426;99.512;2023-02-22T03:30:56;101017.03;;;29.86;61.56
36798;BME280;22748;8.426;99.512;2023-02-22T03:33:31;101015.19;;;29.86;61.08
36798;BME280;22748;8.426;99.512;2023-02-22T03:36:12;101012.06;;;29.89;60.39
36798;BME280;22748;8.426;99.512;2023-02-22T03:38:48;100999.66;;;29.95;60.41
36798;BME280;22748;8.426;99.512;2023-02-22T03:41:23;101005.03;;;29.95;60.27
36798;BME280;22748;8.426;99.512;2023-02-22T03:43:58;100993.81;;;29.98;60.68
36798;BME280;22748;8.426;99.512;2023-02-22T03:46:32;100995.28;;;29.87;59.91
36798;BME280;22748;8.426;99.512;2023-02-22T03:49:02;100995.91;;;29.96;60.27
36798;BME280;22748;8.426;99.512;2023-02-22T03:51:39;100996.31;;;30.06;59.95
36798;BME280;22748;8.426;99.512;2023-02-22T03:54:15;100990.09;;;30.12;59.79
36798;BME280;22748;8.426;99.512;2023-02-22T03:56:49;100982.44;;;30.16;59.40
36798;BME280;22748;8.426;99.512;2023-02-22T03:59:25;100980.75;;;30.22;59.54
36798;BME280;22748;8.426;99.512;2023-02-22T04:01:56;100981.38;;;30.24;59.66
36798;BME280;22748;8.426;99.512;2023-02-22T04:04:28;100974.75;;;30.26;59.54
36798;BME280;22748;8.426;99.512;2023-02-22T04:07:00;100973.13;;;30.32;59.16
36798;BME280;22748;8.426;99.512;2023-02-22T04:09:30;100965.22;;;30.37;58.41
36798;BME280;22748;8.426;99.512;2023-02-22T04:11:59;100957.34;;;30.42;58.22
36798;BME280;22748;8.426;99.512;2023-02-22T04:14:31;100954.66;;;30.42;57.98
36798;BME280;22748;8.426;99.512;2023-02-22T04:17:00;100950.09;;;30.43;57.37
36798;BME280;22748;8.426;99.512;2023-02-22T04:19:36;100951.53;;;30.45;57.29
36798;BME280;22748;8.426;99.512;2023-02-22T04:22:17;100947.38;;;30.49;56.38
36798;BME280;22748;8.426;99.512;2023-02-22T04:24:47;100938.19;;;30.57;56.93
36798;BME280;22748;8.426;99.512;2023-02-22T04:27:19;100940.28;;;30.55;55.70
36798;BME280;22748;8.426;99.512;2023-02-22T04:29:47;100933.22;;;30.61;55.92
36798;BME280;22748;8.426;99.512;2023-02-22T04:32:19;100938.78;;;30.66;55.56
36798;BME280;22748;8.426;99.512;2023-02-22T04:34:50;100925.91;;;30.68;56.16
36798;BME280;22748;8.426;99.512;2023-02-22T04:37:24;100918.88;;;30.67;55.92
36798;BME280;22748;8.426;99.512;2023-02-22T04:39:54;100919.50;;;30.69;55.66
36798;BME280;22748;8.426;99.512;2023-02-22T04:42:24;100916.97;;;30.74;55.71
36798;BME280;22748;8.426;99.512;2023-02-22T04:44:54;100904.72;;;30.78;54.86
36798;BME280;22748;8.426;99.512;2023-02-22T04:47:24;100901.59;;;30.81;54.35
36798;BME280;22748;8.426;99.512;2023-02-22T04:49:56;100892.03;;;30.85;54.24
36798;BME280;22748;8.426;99.512;2023-02-22T04:52:28;100889.16;;;30.87;54.67
36798;BME280;22748;8.426;99.512;2023-02-22T04:54:58;100889.56;;;30.90;54.96
36798;BME280;22748;8.426;99.512;2023-02-22T04:57:28;100887.69;;;30.91;55.03
36798;BME280;22748;8.426;99.512;2023-02-22T04:59:58;100887.06;;;30.89;54.58
36798;BME280;22748;8.426;99.512;2023-02-22T05:02:28;100882.50;;;30.89;54.71
36798;BME280;22748;8.426;99.512;2023-02-22T05:04:58;100875.03;;;30.91;54.57
36798;BME280;22748;8.426;99.512;2023-02-22T05:07:29;100868.97;;;30.96;54.53
36798;BME280;22748;8.426;99.512;2023-02-22T05:09:59;100872.47;;;31.03;53.99
36798;BME280;22748;8.426;99.512;2023-02-22T05:12:29;100860.41;;;31.06;53.60
36798;BME280;22748;8.426;99.512;2023-02-22T05:15:01;100855.44;;;31.03;52.93
36798;BME280;22748;8.426;99.512;2023-02-22T05:17:31;100846.47;;;31.09;53.02
36798;BME280;22748;8.426;99.512;2023-02-22T05:20:02;100852.63;;;31.16;52.72
36798;BME280;22748;8.426;99.512;2023-02-22T05:22:37;100842.84;;;31.22;52.94
36798;BME280;22748;8.426;99.512;2023-02-22T05:25:08;100833.88;;;31.28;52.36
36798;BME280;22748;8.426;99.512;2023-02-22T05:27:38;100831.19;;;31.28;52.56
36798;BME280;22748;8.426;99.512;2023-02-22T05:30:11;100827.22;;;31.30;52.47
36798;BME280;22748;8.426;99.512;2023-02-22T05:32:43;100821.97;;;31.35;52.78
36798;BME280;22748;8.426;99.512;2023-02-22T05:35:14;100821.94;;;31.42;52.96
36798;BME280;22748;8.426;99.512;2023-02-22T05:37:46;100796.63;;;31.43;52.02
36798;BME280;22748;8.426;99.512;2023-02-22T05:40:19;100803.03;;;31.49;52.27
36798;BME280;22748;8.426;99.512;2023-02-22T05:42:51;100801.34;;;31.48;51.97
36798;BME280;22748;8.426;99.512;2023-02-22T05:45:23;100799.72;;;31.47;52.04
36798;BME280;22748;8.426;99.512;2023-02-22T05:47:53;100789.34;;;31.44;52.27
36798;BME280;22748;8.426;99.512;2023-02-22T05:50:24;100791.22;;;31.43;52.26
36798;BME280;22748;8.426;99.512;2023-02-22T05:52:56;100783.50;;;31.47;52.36
36798;BME280;22748;8.426;99.512;2023-02-22T05:55:27;100782.09;;;31.37;52.34
36798;BME280;22748;8.426;99.512;2023-02-22T05:57:56;100782.09;;;31.37;52.51
36798;BME280;22748;8.426;99.512;2023-02-22T06:00:30;100768.19;;;31.41;52.49
36798;BME280;22748;8.426;99.512;2023-02-22T06:03:05;100774.56;;;31.46;52.85
36798;BME280;22748;8.426;99.512;2023-02-22T06:05:38;100769.56;;;31.50;52.83
36798;BME280;22748;8.426;99.512;2023-02-22T06:08:09;100760.66;;;31.49;52.42
36798;BME280;22748;8.426;99.512;2023-02-22T06:10:40;100771.19;;;31.51;52.55
36798;BME280;22748;8.426;99.512;2023-02-22T06:13:10;100752.00;;;31.59;52.68
36798;BME280;22748;8.426;99.512;2023-02-22T06:15:41;100742.81;;;31.67;52.11
36798;BME280;22748;8.426;99.512;2023-02-22T06:18:12;100745.44;;;31.73;52.14
36798;BME280;22748;8.426;99.512;2023-02-22T06:20:42;100736.44;;;31.80;52.13
36798;BME280;22748;8.426;99.512;2023-02-22T06:23:15;100726.81;;;31.84;51.69
36798;BME280;22748;8.426;99.512;2023-02-22T06:25:46;100732.97;;;31.91;51.66
36798;BME280;22748;8.426;99.512;2023-02-22T06:28:18;100720.06;;;31.93;51.47
36798;BME280;22748;8.426;99.512;2023-02-22T06:30:47;100729.19;;;31.92;51.20
36798;BME280;22748;8.426;99.512;2023-02-22T06:33:17;100721.09;;;31.92;51.24
36798;BME280;22748;8.426;99.512;2023-02-22T06:35:47;100723.66;;;31.87;51.17
36798;BME280;22748;8.426;99.512;2023-02-22T06:38:23;100720.28;;;31.91;51.35
36798;BME280;22748;8.426;99.512;2023-02-22T06:40:53;100714.19;;;31.96;50.87
36798;BME280;22748;8.426;99.512;2023-02-22T06:43:23;100712.38;;;31.90;50.58
36798;BME280;22748;8.426;99.512;2023-02-22T06:45:52;100701.38;;;31.91;51.10
36798;BME280;22748;8.426;99.512;2023-02-22T06:48:22;100689.75;;;31.91;51.64
36798;BME280;22748;8.426;99.512;2023-02-22T06:50:51;100697.38;;;31.94;51.73
36798;BME280;22748;8.426;99.512;2023-02-22T06:53:22;100693.63;;;31.95;51.78
36798;BME280;22748;8.426;99.512;2023-02-22T06:55:55;100687.00;;;31.97;51.85
36798;BME280;22748;8.426;99.512;2023-02-22T06:58:25;100684.34;;;31.91;52.15
36798;BME280;22748;8.426;99.512;2023-02-22T07:01:00;100676.25;;;31.91;51.81
36798;BME280;22748;8.426;99.512;2023-02-22T07:03:31;100680.34;;;31.93;51.65
36798;BME280;22748;8.426;99.512;2023-02-22T07:06:06;100681.03;;;31.89;51.38
36798;BME280;22748;8.426;99.512;2023-02-22T07:08:38;100671.88;;;31.90;51.41
36798;BME280;22748;8.426;99.512;2023-02-22T07:11:08;100666.03;;;31.93;51.61
36798;BME280;22748;8.426;99.512;2023-02-22T07:13:39;100666.78;;;32.00;51.42
36798;BME280;22748;8.426;99.512;2023-02-22T07:16:11;100664.69;;;32.02;51.08
36798;BME280;22748;8.426;99.512;2023-02-22T07:18:41;100658.81;;;32.05;51.32
36798;BME280;22748;8.426;99.512;2023-02-22T07:21:10;100652.38;;;32.06;51.38
36798;BME280;22748;8.426;99.512;2023-02-22T07:23:45;100648.00;;;32.05;51.34
36798;BME280;22748;8.426;99.512;2023-02-22T07:26:28;100650.59;;;32.00;51.50
36798;BME280;22748;8.426;99.512;2023-02-22T07:29:01;100651.47;;;31.94;51.86
36798;BME280;22748;8.426;99.512;2023-02-22T07:31:34;100646.16;;;31.87;52.08
36798;BME280;22748;8.426;99.512;2023-02-22T07:34:05;100645.34;;;31.87;51.57
36798;BME280;22748;8.426;99.512;2023-02-22T07:36:36;100647.22;;;31.86;51.89
36798;BME280;22748;8.426;99.512;2023-02-22T07:39:07;100650.84;;;31.80;51.68
36798;BME280;22748;8.426;99.512;2023-02-22T07:41:39;100646.47;;;31.79;51.70
36798;BME280;22748;8.426;99.512;2023-02-22T07:44:08;100637.56;;;31.78;51.59
36798;BME280;22748;8.426;99.512;2023-02-22T07:46:40;100635.44;;;31.81;51.24
36798;BME280;22748;8.426;99.512;2023-02-22T07:49:09;100639.22;;;31.80;51.43
36798;BME280;22748;8.426;99.512;2023-02-22T07:51:38;100625.84;;;31.85;52.01
36798;BME280;22748;8.426;99.512;2023-02-22T07:54:14;100622.06;;;31.86;51.38
36798;BME280;22748;8.426;99.512;2023-02-22T07:56:49;100625.84;;;31.85;51.64
36798;BME280;22748;8.426;99.512;2023-02-22T07:59:20;100627.56;;;31.79;51.77
36798;BME280;22748;8.426;99.512;2023-02-22T08:01:50;100624.22;;;31.84;51.99
36798;BME280;22748;8.426;99.512;2023-02-22T08:04:20;100629.22;;;31.80;51.76
36798;BME280;22748;8.426;99.512;2023-02-22T08:06:49;100627.22;;;31.75;51.66
36798;BME280;22748;8.426;99.512;2023-02-22T08:09:21;100623.44;;;31.76;51.77
36798;BME280;22748;8.426;99.512;2023-02-22T08:11:56;100627.66;;;31.72;51.76
36798;BME280;22748;8.426;99.512;2023-02-22T08:14:27;100621.44;;;31.72;51.71
36798;BME280;22748;8.426;99.512;2023-02-22T08:16:56;100624.75;;;31.74;51.71
36798;BME280;22748;8.426;99.512;2023-02-22T08:19:30;100620.16;;;31.74;51.67
36798;BME280;22748;8.426;99.512;2023-02-22T08:22:02;100618.38;;;31.68;51.76
36798;BME280;22748;8.426;99.512;2023-02-22T08:24:33;100622.94;;;31.68;52.04
36798;BME280;22748;8.426;99.512;2023-02-22T08:27:06;100612.91;;;31.75;51.87
36798;BME280;22748;8.426;99.512;2023-02-22T08:29:38;100629.22;;;31.80;52.39
36798;BME280;22748;8.426;99.512;2023-02-22T08:32:10;100629.59;;;31.84;51.74
36798;BME280;22748;8.426;99.512;2023-02-22T08:34:44;100619.97;;;31.88;51.75
36798;BME280;22748;8.426;99.512;2023-02-22T08:37:17;100619.97;;;31.88;51.86
36798;BME280;22748;8.426;99.512;2023-02-22T08:39:52;100628.06;;;31.88;51.98
36798;BME280;22748;8.426;99.512;2023-02-22T08:42:26;100617.13;;;31.83;52.07
36798;BME280;22748;8.426;99.512;2023-02-22T08:44:57;100613.84;;;31.81;51.88
36798;BME280;22748;8.426;99.512;2023-02-22T08:47:28;100609.94;;;31.76;51.59
36798;BME280;22748;8.426;99.512;2023-02-22T08:49:58;100613.13;;;31.73;51.78
36798;BME280;22748;8.426;99.512;2023-02-22T08:52:29;100611.84;;;31.76;51.52
36798;BME280;22748;8.426;99.512;2023-02-22T08:55:02;100617.13;;;31.83;51.53
36798;BME280;22748;8.426;99.512;2023-02-22T08:57:36;100623.44;;;31.76;51.84
36798;BME280;22748;8.426;99.512;2023-02-22T09:00:06;100625.56;;;31.74;51.91
36798;BME280;22748;8.426;99.512;2023-02-22T09:02:37;100615.59;;;31.75;52.04
36798;BME280;22748;8.426;99.512;2023-02-22T09:05:10;100625.94;;;31.78;51.61
36798;BME280;22748;8.426;99.512;2023-02-22T09:07:54;100619.72;;;31.77;51.32
36798;BME280;22748;8.426;99.512;2023-02-22T09:10:31;100630.50;;;31.77;51.35
36798;BME280;22748;8.426;99.512;2023-02-22T09:13:20;100629.44;;;31.78;51.42
36798;BME280;22748;8.426;99.512;2023-02-22T09:15:54;100628.03;;;31.76;50.96
36798;BME280;22748;8.426;99.512;2023-02-22T09:18:27;100627.06;;;31.70;51.04
36798;BME280;22748;8.426;99.512;2023-02-22T09:20:56;100629.16;;;31.68;51.23
36798;BME280;22748;8.426;99.512;2023-02-22T09:23:28;100625.44;;;31.69;51.45
36798;BME280;22748;8.426;99.512;2023-02-22T09:26:03;100623.09;;;31.73;51.14
36798;BME280;22748;8.426;99.512;2023-02-22T09:28:35;100633.22;;;31.77;51.44
36798;BME280;22748;8.426;99.512;2023-02-22T09:31:07;100618.06;;;31.76;51.60
36798;BME280;22748;8.426;99.512;2023-02-22T09:33:38;100623.81;;;31.80;51.50
36798;BME280;22748;8.426;99.512;2023-02-22T09:36:10;100619.25;;;31.81;51.77
36798;BME280;22748;8.426;99.512;2023-02-22T09:38:41;100619.25;;;31.81;51.68
36798;BME280;22748;8.426;99.512;2023-02-22T09:41:31;100615.13;;;31.78;51.52
36798;BME280;22748;8.426;99.512;2023-02-22T09:44:21;100617.63;;;31.80;51.73
36798;BME280;22748;8.426;99.512;2023-02-22T09:47:07;100625.72;;;31.80;51.49
36798;BME280;22748;8.426;99.512;2023-02-22T09:50:15;100624.22;;;31.84;51.78
36798;BME280;22748;8.426;99.512;2023-02-22T09:52:55;100619.63;;;31.84;51.51
36798;BME280;22748;8.426;99.512;2023-02-22T09:55:42;100624.22;;;31.84;51.73
36798;BME280;22748;8.426;99.512;2023-02-22T09:58:23;100625.84;;;31.85;51.75
36798;BME280;22748;8.426;99.512;2023-02-22T10:00:59;100620.66;;;31.83;51.89
36798;BME280;22748;8.426;99.512;2023-02-22T10:03:47;100627.94;;;31.83;51.53
36798;BME280;22748;8.426;99.512;2023-02-22T10:06:20;100626.66;;;31.85;51.60
36798;BME280;22748;8.426;99.512;2023-02-22T10:08:56;100640.75;;;31.87;51.54
36798;BME280;22748;8.426;99.512;2023-02-22T10:11:50;100640.41;;;31.84;51.55
36798;BME280;22748;8.426;99.512;2023-02-22T10:14:39;100639.66;;;31.76;51.51
36798;BME280;22748;8.426;99.512;2023-02-22T10:17:20;100648.94;;;31.81;51.35
36798;BME280;22748;8.426;99.512;2023-02-22T10:20:09;100639.66;;;31.76;51.17
36798;BME280;22748;8.426;99.512;2023-02-22T10:22:55;100657.28;;;31.79;51.44
36798;BME280;22748;8.426;99.512;2023-02-22T10:25:35;100648.13;;;31.80;51.37
36798;BME280;22748;8.426;99.512;2023-02-22T10:28:12;100652.72;;;31.80;51.49
36798;BME280;22748;8.426;99.512;2023-02-22T10:30:50;100657.06;;;31.81;51.56
36798;BME280;22748;8.426;99.512;2023-02-22T10:33:28;100667.41;;;31.84;51.94
36798;BME280;22748;8.426;99.512;2023-02-22T10:35:58;100671.75;;;31.85;51.88
36798;BME280;22748;8.426;99.512;2023-02-22T10:38:32;100672.44;;;31.80;51.54
36798;BME280;22748;8.426;99.512;2023-02-22T10:41:19;100669.13;;;31.78;51.78
36798;BME280;22748;8.426;99.512;2023-02-22T10:43:52;100674.16;;;31.74;51.37
36798;BME280;22748;8.426;99.512;2023-02-22T10:46:26;100672.97;;;31.70;51.55
36798;BME280;22748;8.426;99.512;2023-02-22T10:49:03;100671.31;;;31.69;51.57
36798;BME280;22748;8.426;99.512;2023-02-22T10:51:35;100676.25;;;31.72;51.27
36798;BME280;22748;8.426;99.512;2023-02-22T10:54:27;100686.03;;;31.73;51.65
36798;BME280;22748;8.426;99.512;2023-02-22T10:57:05;100681.66;;;31.72;51.55
36798;BME280;22748;8.426;99.512;2023-02-22T10:59:41;100680.84;;;31.72;51.55
36798;BME280;22748;8.426;99.512;2023-02-22T11:02:18;100683.75;;;31.70;51.75
36798;BME280;22748;8.426;99.512;2023-02-22T11:04:58;100684.59;;;31.71;51.88
36798;BME280;22748;8.426;99.512;2023-02-22T11:07:33;100691.44;;;31.73;52.01
36798;BME280;22748;8.426;99.512;2023-02-22T11:10:07;100689.31;;;31.75;52.12
36798;BME280;22748;8.426;99.512;2023-02-22T11:12:40;100691.56;;;31.78;51.83
36798;BME280;22748;8.426;99.512;2023-02-22T11:15:27;100682.84;;;31.76;52.16
36798;BME280;22748;8.426;99.512;2023-02-22T11:18:00;100685.34;;;31.78;52.59
36798;BME280;22748;8.426;99.512;2023-02-22T11:20:35;100683.94;;;31.75;52.40
36798;BME280;22748;8.426;99.512;2023-02-22T11:23:08;100688.25;;;31.76;52.34
36798;BME280;22748;8.426;99.512;2023-02-22T11:25:42;100687.91;;;31.73;52.15
36798;BME280;22748;8.426;99.512;2023-02-22T11:28:18;100687.06;;;31.72;52.06
36798;BME280;22748;8.426;99.512;2023-02-22T11:31:08;100694.56;;;31.70;52.62
36798;BME280;22748;8.426;99.512;2023-02-22T11:33:48;100693.16;;;31.68;52.38
36798;BME280;22748;8.426;99.512;2023-02-22T11:36:41;100704.19;;;31.66;52.89
36798;BME280;22748;8.426;99.512;2023-02-22T11:39:25;100712.84;;;31.68;52.87
36798;BME280;22748;8.426;99.512;2023-02-22T11:42:21;100712.84;;;31.68;52.98
36798;BME280;22748;8.426;99.512;2023-02-22T11:45:23;100720.38;;;31.66;52.62
36798;BME280;22748;8.426;99.512;2023-02-22T11:48:04;100714.16;;;31.66;52.85
36798;BME280;22748;8.426;99.512;2023-02-22T11:51:02;100707.31;;;31.63;53.00
36798;BME280;22748;8.426;99.512;2023-02-22T11:53:56;100712.94;;;31.62;53.20
36798;BME280;22748;8.426;99.512;2023-02-22T11:56:35;100717.53;;;31.61;53.55
36798;BME280;22748;8.426;99.512;2023-02-22T11:59:19;100725.63;;;31.61;53.54
36798;BME280;22748;8.426;99.512;2023-02-22T12:01:56;100720.22;;;31.61;53.69
36798;BME280;22748;8.426;99.512;2023-02-22T12:04:48;100724.19;;;31.59;53.77
36798;BME280;22748;8.426;99.512;2023-02-22T12:07:44;100728.78;;;31.58;53.81
36798;BME280;22748;8.426;99.512;2023-02-22T12:10:27;100736.88;;;31.58;54.28
36798;BME280;22748;8.426;99.512;2023-02-22T12:13:29;100739.59;;;31.58;53.78
36798;BME280;22748;8.426;99.512;2023-02-22T12:16:14;100744.97;;;31.58;53.79
36798;BME280;22748;8.426;99.512;2023-02-22T12:18:58;100746.00;;;31.57;53.93
36798;BME280;22748;8.426;99.512;2023-02-22T12:21:34;100749.19;;;31.54;54.34
36798;BME280;22748;8.426;99.512;2023-02-22T12:24:15;100750.66;;;31.50;54.17
36798;BME280;22748;8.426;99.512;2023-02-22T12:26:49;100750.66;;;31.50;54.28
36798;BME280;22748;8.426;99.512;2023-02-22T12:29:27;100752.16;;;31.46;54.34
36798;BME280;22748;8.426;99.512;2023-02-22T12:32:03;100752.63;;;31.43;54.79
36798;BME280;22748;8.426;99.512;2023-02-22T12:34:44;100763.41;;;31.43;54.78
36798;BME280;22748;8.426;99.512;2023-02-22T12:37:25;100764.22;;;31.43;54.72
36798;BME280;22748;8.426;99.512;2023-02-22T12:40:05;100762.34;;;31.44;54.62
36798;BME280;22748;8.426;99.512;2023-02-22T12:42:47;100771.06;;;31.46;54.81
36798;BME280;22748;8.426;99.512;2023-02-22T12:45:27;100769.41;;;31.45;54.98
36798;BME280;22748;8.426;99.512;2023-02-22T12:48:20;100777.28;;;31.46;54.69
36798;BME280;22748;8.426;99.512;2023-02-22T12:50:55;100784.56;;;31.46;54.68
36798;BME280;22748;8.426;99.512;2023-02-22T12:53:32;100782.91;;;31.45;54.44
36798;BME280;22748;8.426;99.512;2023-02-22T12:56:19;100787.06;;;31.41;54.31
36798;BME280;22748;8.426;99.512;2023-02-22T12:58:58;100795.81;;;31.43;54.59
36798;BME280;22748;8.426;99.512;2023-02-22T13:01:37;100806.78;;;31.41;54.47
36798;BME280;22748;8.426;99.512;2023-02-22T13:04:10;100808.66;;;31.41;54.27
36798;BME280;22748;8.426;99.512;2023-02-22T13:06:52;100814.28;;;31.39;54.14
36798;BME280;22748;8.426;99.512;2023-02-22T13:09:46;100818.84;;;31.39;54.06
36798;BME280;22748;8.426;99.512;2023-02-22T13:12:30;100818.25;;;31.36;54.13
36798;BME280;22748;8.426;99.512;2023-02-22T13:15:13;100821.75;;;31.37;54.32
36798;BME280;22748;8.426;99.512;2023-02-22T13:18:02;100823.03;;;31.34;54.78
36798;BME280;22748;8.426;99.512;2023-02-22T13:20:40;100820.75;;;31.31;55.09
36798;BME280;22748;8.426;99.512;2023-02-22T13:23:21;100823.91;;;31.28;55.31
36798;BME280;22748;8.426;99.512;2023-02-22T13:26:00;100828.69;;;31.26;55.26
36798;BME280;22748;8.426;99.512;2023-02-22T13:28:40;100824.56;;;31.24;55.14
36798;BME280;22748;8.426;99.512;2023-02-22T13:31:26;100827.50;;;31.22;55.10
36798;BME280;22748;8.426;99.512;2023-02-22T13:34:11;100837.66;;;31.20;55.59
36798;BME280;22748;8.426;99.512;2023-02-22T13:37:00;100842.47;;;31.18;55.78
36798;BME280;22748;8.426;99.512;2023-02-22T13:39:54;100844.13;;;31.19;55.56